Time;durP1;ratioP1;P1;durP2;ratioP2;P2;SDS_P1;SDS_P2;PMS_P1;PMS_P2;Temp;Humidity;BMP_temperature;BMP_pressure;BME280_temperature;BME280_humidity;BME280_pressure;Samples;Min_cycle;Max_cycle;Signal;HPM_P1;HPM_P2
2022/12/20 00:01:18;;;;;;;23.30;13.50;;;;;;;-0.93;89.63;100196.91;436216;1284;144656;-72
2022/12/20 00:11:24;;;;;;;22.90;14.80;;;;;;;-0.91;90.22;100193.80;436312;1281;142267;-72
2022/12/20 00:21:31;;;;;;;21.90;14.30;;;;;;;-0.89;90.37;100197.05;435498;1281;142934;-72
2022/12/20 00:31:36;;;;;;;23.00;14.00;;;;;;;-0.88;90.38;100188.96;436225;1282;142200;-72
2022/12/20 00:41:42;;;;;;;21.30;13.00;;;;;;;-0.88;90.73;100178.14;428534;1274;142405;-71
2022/12/20 00:51:48;;;;;;;20.10;12.80;;;;;;;-0.86;91.07;100158.86;426890;1279;143502;-71
2022/12/20 01:01:53;;;;;;;22.70;12.80;;;;;;;-0.82;91.33;100149.73;424087;1274;143584;-72
2022/12/20 01:12:00;;;;;;;20.50;14.10;;;;;;;-0.79;91.67;100139.74;423541;1274;143955;-72
2022/12/20 01:22:06;;;;;;;20.20;13.20;;;;;;;-0.79;91.60;100124.95;423975;1278;143468;-71
2022/12/20 01:32:11;;;;;;;23.90;15.80;;;;;;;-0.77;92.00;100111.52;423975;1281;142996;-71
2022/12/20 01:42:17;;;;;;;22.90;14.90;;;;;;;-0.75;92.14;100101.02;423540;1279;143198;-70
2022/12/20 01:52:31;;;;;;;20.00;13.70;;;;;;;-0.71;92.03;100096.84;424067;1281;142627;-72
2022/12/20 02:02:38;;;;;;;24.10;15.80;;;;;;;-0.66;91.76;100081.68;423818;1281;144520;-73
2022/12/20 02:12:46;;;;;;;19.90;12.60;;;;;;;-0.62;91.94;100067.02;425668;1277;142620;-71
2022/12/20 02:23:13;;;;;;;22.90;15.00;;;;;;;-0.54;92.00;100070.38;424061;1274;142446;-72
2022/12/20 02:33:20;;;;;;;21.10;13.60;;;;;;;-0.48;91.90;100050.01;422686;1278;143565;-70
2022/12/20 02:53:48;;;;;;;19.00;12.60;;;;;;;-0.36;92.05;100081.71;428239;1275;131259;-71
2022/12/20 03:03:55;;;;;;;17.60;12.20;;;;;;;-0.35;92.38;100063.80;422879;1281;142598;-70
2022/12/20 03:14:00;;;;;;;21.90;14.70;;;;;;;-0.31;92.50;100045.36;423376;1281;146846;-70
2022/12/20 03:24:07;;;;;;;22.30;15.20;;;;;;;-0.27;92.77;100025.88;424613;1278;143110;-70
2022/12/20 03:34:12;;;;;;;22.20;14.40;;;;;;;-0.25;92.80;99999.69;423687;1277;184531;-70
2022/12/20 03:44:18;;;;;;;23.80;13.80;;;;;;;-0.26;92.94;100001.77;423507;1275;142490;-71
2022/12/20 03:54:24;;;;;;;21.80;14.60;;;;;;;-0.34;92.89;100014.41;422610;1278;142970;-70
2022/12/20 04:04:29;;;;;;;23.40;13.60;;;;;;;-0.38;92.79;100006.90;423253;1281;143701;-70
2022/12/20 04:14:36;;;;;;;22.40;14.20;;;;;;;-0.39;92.79;100001.23;423319;1281;143623;-71
2022/12/20 04:24:42;;;;;;;21.00;15.30;;;;;;;-0.38;92.55;100002.60;425830;1281;142828;-71
2022/12/20 04:34:47;;;;;;;24.80;15.00;;;;;;;-0.37;92.36;99997.59;423934;1281;142216;-77
2022/12/20 04:44:53;;;;;;;20.10;13.60;;;;;;;-0.40;91.88;100001.41;423571;1281;143152;-78
2022/12/20 04:54:59;;;;;;;22.00;14.40;;;;;;;-0.41;91.35;100007.11;422948;1281;199371;-77
2022/12/20 05:05:07;;;;;;;21.20;13.90;;;;;;;-0.44;91.14;100011.45;423568;1280;143489;-76
2022/12/20 05:15:13;;;;;;;21.10;14.40;;;;;;;-0.49;90.59;100028.19;427109;1281;141748;-77
2022/12/20 05:35:43;;;;;;;20.80;15.00;;;;;;;-0.67;90.32;100030.79;423603;1278;143360;-77
2022/12/20 05:45:50;;;;;;;20.90;14.40;;;;;;;-0.71;90.19;100021.02;423139;1280;147955;-76
2022/12/20 05:55:56;;;;;;;24.60;15.50;;;;;;;-0.70;90.26;100001.42;424020;1280;144758;-77
2022/12/20 06:06:02;;;;;;;23.70;16.70;;;;;;;-0.64;89.73;99989.31;422830;1281;142127;-78
2022/12/20 06:16:19;;;;;;;24.70;16.40;;;;;;;-0.63;89.65;100007.54;423924;1281;142366;-77
2022/12/20 06:26:25;;;;;;;24.40;14.80;;;;;;;-0.78;89.40;100007.52;423954;1275;143561;-77
2022/12/20 06:36:31;;;;;;;24.70;13.70;;;;;;;-1.00;89.15;100005.50;423775;1281;141733;-76
2022/12/20 06:46:37;;;;;;;23.90;14.30;;;;;;;-1.19;89.37;100002.76;426000;1282;141795;-78
2022/12/20 06:56:43;;;;;;;25.00;15.80;;;;;;;-1.25;89.25;100009.34;431266;1280;142120;-77
2022/12/20 07:06:49;;;;;;;26.10;15.60;;;;;;;-1.21;89.30;100010.86;422682;1281;143053;-77
2022/12/20 07:16:57;;;;;;;30.00;16.70;;;;;;;-1.15;89.35;100012.34;423962;1282;142106;-77
2022/12/20 07:27:03;;;;;;;24.50;15.50;;;;;;;-1.02;88.99;100015.65;422971;1281;142418;-77
2022/12/20 07:37:09;;;;;;;24.50;15.90;;;;;;;-0.78;89.23;100013.02;423875;1278;141960;-76
2022/12/20 07:47:15;;;;;;;24.60;14.70;;;;;;;-0.42;88.95;100007.80;423847;1274;142259;-76
2022/12/20 07:57:27;;;;;;;24.60;16.00;;;;;;;-0.14;88.49;100015.54;423358;1281;142374;-76
2022/12/20 08:07:34;;;;;;;26.40;16.20;;;;;;;0.04;87.93;100002.05;436260;1278;142092;-77
2022/12/20 08:17:41;;;;;;;22.40;14.60;;;;;;;0.32;87.66;100006.63;432409;1282;141808;-76
2022/12/20 08:27:48;;;;;;;27.80;17.10;;;;;;;0.83;87.25;99993.24;423061;1281;141832;-76
2022/12/20 08:37:54;;;;;;;21.90;15.60;;;;;;;1.30;86.51;99992.55;423247;1274;142398;-75
2022/12/20 08:48:00;;;;;;;26.10;17.90;;;;;;;1.65;86.12;99992.05;423077;1281;142847;-75
2022/12/20 08:58:06;;;;;;;28.10;18.00;;;;;;;1.69;85.08;99986.61;427460;1281;151770;-76
2022/12/20 09:08:12;;;;;;;25.90;18.20;;;;;;;1.66;85.17;99973.20;423717;1281;142135;-76
2022/12/20 09:18:18;;;;;;;25.70;17.80;;;;;;;1.80;84.78;99963.23;422994;1275;141687;-73
2022/12/20 09:28:24;;;;;;;29.10;18.80;;;;;;;1.90;84.49;99963.39;423979;1275;141506;-74
2022/12/20 09:38:31;;;;;;;27.70;18.80;;;;;;;1.91;83.97;99964.73;423757;1274;142728;-74
2022/12/20 09:48:40;;;;;;;25.40;17.40;;;;;;;1.89;83.93;99974.80;434621;1274;142157;-71
2022/12/20 09:59:02;;;;;;;28.50;17.40;;;;;;;2.12;83.86;99972.04;435923;1274;141182;-71
2022/12/20 10:09:21;;;;;;;26.50;18.80;;;;;;;2.81;83.75;99983.17;435406;1273;141692;-72
2022/12/20 10:19:46;;;;;;;27.60;19.90;;;;;;;3.32;82.77;99989.27;428279;1273;141579;-72
2022/12/20 10:29:53;;;;;;;26.90;18.50;;;;;;;3.41;81.87;99967.91;428619;1275;142344;-71
2022/12/20 10:39:59;;;;;;;28.20;17.80;;;;;;;3.43;81.54;99946.04;423209;1275;142299;-72
2022/12/20 10:50:17;;;;;;;26.00;17.20;;;;;;;3.32;81.24;99921.09;424093;1275;143044;-72
2022/12/20 11:00:32;;;;;;;29.40;18.50;;;;;;;3.10;81.06;99923.96;434866;1281;141851;-72
2022/12/20 11:10:38;;;;;;;27.40;17.30;;;;;;;2.79;81.43;99905.41;432115;1281;142238;-72
2022/12/20 11:20:51;;;;;;;29.00;18.60;;;;;;;2.68;81.24;99879.44;424179;1275;141854;-72
2022/12/20 11:31:08;;;;;;;27.30;16.90;;;;;;;2.56;81.31;99856.42;423462;1275;141421;-71
2022/12/20 11:41:25;;;;;;;26.90;18.50;;;;;;;2.34;81.54;99860.43;426605;1274;142874;-71
2022/12/20 11:51:43;;;;;;;24.60;17.30;;;;;;;2.20;82.22;99863.71;435767;1281;141593;-71
2022/12/20 12:01:56;;;;;;;29.90;20.10;;;;;;;2.68;82.08;99871.14;436459;1281;143160;-71
2022/12/20 12:12:09;;;;;;;25.60;16.80;;;;;;;3.10;81.61;99872.75;435619;1273;141902;-71
2022/12/20 12:22:23;;;;;;;27.20;18.40;;;;;;;3.42;81.13;99872.33;436331;1283;144678;-69
2022/12/20 12:32:36;;;;;;;32.40;19.30;;;;;;;3.31;80.91;99882.19;436477;1281;143298;-71
2022/12/20 12:43:33;;;;;;;28.30;21.40;;;;;;;2.98;80.58;99880.36;435728;1282;142114;-70
2022/12/20 12:53:44;;;;;;;30.20;19.50;;;;;;;2.50;80.71;99871.95;435932;1283;196107;-70
2022/12/20 13:04:21;;;;;;;27.30;18.90;;;;;;;2.41;81.30;99857.67;435612;1281;142506;-70
2022/12/20 13:14:52;;;;;;;29.50;17.50;;;;;;;2.35;81.13;99848.15;431905;1274;142538;-71
2022/12/20 13:25:01;;;;;;;27.30;17.90;;;;;;;2.39;81.55;99825.40;435596;1274;142655;-70
2022/12/20 13:35:30;;;;;;;25.30;18.50;;;;;;;2.40;81.43;99827.98;436421;1282;141337;-70
2022/12/20 13:45:38;;;;;;;32.30;20.20;;;;;;;2.37;81.46;99827.18;435626;1281;141661;-69
2022/12/20 13:55:44;;;;;;;26.50;18.20;;;;;;;2.27;81.71;99839.70;428412;1281;144946;-70
2022/12/20 14:05:56;;;;;;;30.30;18.70;;;;;;;2.02;81.81;99839.47;423649;1275;142778;-70
2022/12/20 14:16:11;;;;;;;30.20;18.60;;;;;;;1.78;82.21;99842.98;424958;1275;143399;-69
2022/12/20 14:26:22;;;;;;;29.50;19.10;;;;;;;1.66;82.49;99836.34;423849;1274;143080;-68
2022/12/20 14:36:29;;;;;;;28.70;19.40;;;;;;;1.54;82.76;99828.00;435748;1281;142141;-69
2022/12/20 14:46:37;;;;;;;32.20;21.10;;;;;;;1.40;82.88;99817.09;436515;1281;141375;-69
2022/12/20 14:56:50;;;;;;;33.20;20.30;;;;;;;1.35;83.01;99807.89;436234;1278;142011;-69
2022/12/20 15:06:57;;;;;;;32.60;20.10;;;;;;;1.30;83.20;99795.92;435778;1280;142795;-69
2022/12/20 15:17:09;;;;;;;30.40;21.00;;;;;;;1.33;83.50;99801.56;425040;1274;141264;-69
2022/12/20 15:27:16;;;;;;;34.00;21.30;;;;;;;1.35;83.56;99799.80;435788;1278;141815;-70
2022/12/20 15:37:22;;;;;;;37.80;23.50;;;;;;;1.29;83.57;99783.02;436332;1275;142980;-69
2022/12/20 15:47:28;;;;;;;35.00;23.70;;;;;;;1.22;83.80;99770.76;436538;1281;142260;-71
2022/12/20 15:57:34;;;;;;;33.90;25.00;;;;;;;1.22;83.92;99770.41;434503;1274;142695;-69
2022/12/20 16:07:41;;;;;;;37.60;24.80;;;;;;;1.17;83.98;99755.36;428889;1274;141418;-69
2022/12/20 16:17:47;;;;;;;43.20;28.30;;;;;;;1.05;84.22;99763.19;426791;1274;142402;-68
2022/12/20 16:27:53;;;;;;;43.60;29.40;;;;;;;1.02;84.48;99751.54;427792;1282;142905;-69
2022/12/20 16:38:00;;;;;;;37.40;24.80;;;;;;;0.84;84.49;99762.78;436295;1281;141578;-69
2022/12/20 16:48:07;;;;;;;42.80;27.50;;;;;;;0.70;84.96;99754.80;435740;1282;141695;-68
2022/12/20 16:58:13;;;;;;;34.50;23.80;;;;;;;0.60;85.13;99772.58;436489;1281;143373;-69
2022/12/20 17:08:19;;;;;;;35.30;24.50;;;;;;;0.46;85.48;99755.61;436494;1278;194734;-69
2022/12/20 17:18:44;;;;;;;41.50;25.30;;;;;;;0.35;85.69;99759.98;431731;1275;141581;-69
2022/12/20 17:28:50;;;;;;;41.10;25.10;;;;;;;0.15;85.84;99740.90;420778;1275;142569;-68
2022/12/20 17:38:57;;;;;;;40.20;26.20;;;;;;;0.03;86.36;99737.14;430230;1274;145132;-69
2022/12/20 17:49:03;;;;;;;41.40;24.90;;;;;;;0.17;86.80;99737.41;420522;1274;143377;-69
2022/12/20 17:59:11;;;;;;;39.60;23.80;;;;;;;0.29;86.66;99751.82;423701;1275;142281;-70
2022/12/20 18:09:19;;;;;;;36.20;22.20;;;;;;;0.25;86.67;99741.89;426887;1275;141505;-70
2022/12/20 18:19:25;;;;;;;38.30;25.10;;;;;;;0.14;86.72;99740.03;423118;1282;141610;-69
2022/12/20 18:29:32;;;;;;;40.00;24.80;;;;;;;0.08;86.92;99727.94;436115;1280;142080;-69
2022/12/20 18:39:38;;;;;;;29.50;17.90;;;;;;;0.02;86.95;99714.79;423299;1280;143300;-69
2022/12/20 18:49:44;;;;;;;37.60;24.30;;;;;;;-0.07;87.18;99713.40;426925;1282;144709;-68
2022/12/20 18:59:50;;;;;;;31.30;21.50;;;;;;;-0.11;87.57;99709.52;427692;1281;141678;-69
2022/12/20 19:09:56;;;;;;;35.40;22.40;;;;;;;-0.03;87.65;99702.83;435374;1281;142755;-68
2022/12/20 19:20:03;;;;;;;35.20;23.20;;;;;;;0.12;87.64;99702.04;436246;1280;142032;-69
2022/12/20 19:30:11;;;;;;;36.30;22.00;;;;;;;0.26;87.39;99699.00;435277;1281;142943;-70
2022/12/20 19:40:17;;;;;;;28.80;20.00;;;;;;;0.39;87.28;99684.63;436088;1279;141618;-69
2022/12/20 19:50:23;;;;;;;29.70;20.60;;;;;;;0.48;87.22;99695.48;436324;1281;141920;-69
2022/12/20 20:00:29;;;;;;;33.20;20.50;;;;;;;0.51;86.98;99685.25;435559;1280;141719;-68
2022/12/20 20:10:36;;;;;;;31.00;19.30;;;;;;;0.54;86.74;99655.04;436292;1281;142586;-69
2022/12/20 20:20:43;;;;;;;31.90;20.10;;;;;;;0.57;86.70;99665.83;436093;1283;141813;-69
2022/12/20 20:30:49;;;;;;;33.70;21.60;;;;;;;0.56;86.50;99649.81;430853;1275;141552;-69
2022/12/20 20:40:54;;;;;;;;;;;;;;;0.55;86.48;99652.60;427442;1275;142194;-71
2022/12/20 20:51:00;;;;;;;29.70;19.10;;;;;;;0.54;86.40;99660.73;436351;1278;127793;-70
2022/12/20 21:01:08;;;;;;;33.60;20.60;;;;;;;0.53;86.25;99640.07;435911;1280;197605;-70
2022/12/20 21:11:14;;;;;;;28.90;19.30;;;;;;;0.57;86.18;99645.33;436193;1275;141598;-70
2022/12/20 21:21:21;;;;;;;28.90;18.50;;;;;;;0.61;86.08;99641.96;435478;1284;142194;-70
2022/12/20 21:31:27;;;;;;;29.30;18.20;;;;;;;0.63;85.79;99623.65;436361;1282;142412;-70
2022/12/20 21:41:33;;;;;;;24.60;17.30;;;;;;;0.65;85.80;99610.53;436277;1279;141710;-69
2022/12/20 21:51:39;;;;;;;26.80;17.10;;;;;;;0.68;85.82;99613.54;435571;1281;143008;-68
2022/12/20 22:01:45;;;;;;;24.70;16.60;;;;;;;0.73;85.78;99616.52;436166;1285;141974;-69
2022/12/20 22:11:52;;;;;;;28.10;16.30;;;;;;;0.76;85.69;99602.53;421801;1281;141065;-69
2022/12/20 22:21:58;;;;;;;29.80;19.50;;;;;;;0.74;85.58;99574.98;435290;1280;141861;-69
2022/12/20 22:32:04;;;;;;;28.70;17.80;;;;;;;0.72;85.64;99570.73;434423;1284;145367;-68
2022/12/20 22:42:10;;;;;;;30.10;17.60;;;;;;;0.72;85.71;99551.77;418609;1281;141986;-68
2022/12/20 22:52:16;;;;;;;28.70;17.40;;;;;;;0.71;85.65;99542.83;436084;1286;142186;-69
2022/12/20 23:02:23;;;;;;;28.10;17.30;;;;;;;0.72;85.63;99522.66;424748;1288;144148;-68
2022/12/20 23:22:52;;;;;;;26.90;17.00;;;;;;;0.72;85.62;99497.30;436122;1286;143002;-69
2022/12/20 23:32:59;;;;;;;26.80;17.90;;;;;;;0.73;85.53;99502.48;418960;1276;141926;-68
2022/12/20 23:43:05;;;;;;;25.10;15.90;;;;;;;0.62;85.59;99496.35;420600;1281;145239;-68
2022/12/20 23:53:11;;;;;;;28.10;18.60;;;;;;;0.49;85.63;99485.65;419470;1281;141735;-69
